Time;durP1;ratioP1;P1;durP2;ratioP2;P2;SDS_P1;SDS_P2;PMS_P1;PMS_P2;Temp;Humidity;BMP_temperature;BMP_pressure;BME280_temperature;BME280_humidity;BME280_pressure;Samples;Min_cycle;Max_cycle;Signal;HPM_P1;HPM_P2
2023/07/24 00:01:20;;;;;;;;;;;;;;;;;;2065507;28;19921;-78
2023/07/24 00:02:41;;;;;;;;;;;;;;;;;;2065577;28;19909;-78
2023/07/24 00:04:01;;;;;;;;;;;;;;;;;;2071512;28;20287;-78
2023/07/24 00:05:22;;;;;;;;;;;;;;;;;;2066374;28;19906;-77
2023/07/24 00:06:43;;;;;;;;;;;;;;;;;;2073893;28;19909;-78
2023/07/24 00:08:03;;;;;;;;;;;;;;;;;;2072164;28;19905;-78
2023/07/24 00:09:24;;;;;;;;;;;;;;;;;;2080675;28;19916;-78
2023/07/24 00:10:45;;;;;;;;;;;;;;;;;;2066888;28;19920;-79
2023/07/24 00:12:06;;;;;;;;;;;;;;;;;;2064317;28;19914;-77
2023/07/24 00:13:26;;;;;;;;;;;;;;;;;;2063246;28;19906;-78
2023/07/24 00:14:47;;;;;;;;;;;;;;;;;;2066339;28;19921;-77
2023/07/24 00:16:08;;;;;;;;;;;;;;;;;;2061809;28;19917;-78
2023/07/24 00:17:28;;;;;;;;;;;;;;;;;;2061879;28;20246;-77
2023/07/24 00:18:49;;;;;;;;;;;;;;;;;;2071004;28;19996;-77
2023/07/24 00:20:10;;;;;;;;;;;;;;;;;;2065001;28;19905;-78
2023/07/24 00:21:30;;;;;;;;;;;;;;;;;;2058390;28;19912;-77
2023/07/24 00:22:51;;;;;;;;;;;;;;;;;;2070726;28;19910;-78
2023/07/24 00:24:12;;;;;;;;;;;;;;;;;;2074853;28;19932;-78
2023/07/24 00:25:32;;;;;;;;;;;;;;;;;;2078807;28;20450;-77
2023/07/24 00:26:53;;;;;;;;;;;;;;;;;;2073964;28;19917;-78
2023/07/24 00:28:14;;;;;;;;;;;;;;;;;;2063861;28;19909;-78
2023/07/24 00:29:34;;;;;;;;;;;;;;;;;;2067593;28;19918;-78
2023/07/24 00:30:56;;;;;;;;;;;;;;;;;;2075952;28;19921;-76
2023/07/24 00:32:16;;;;;;;;;;;;;;;;;;2076675;28;19920;-78
2023/07/24 00:33:37;;;;;;;;;;;;;;;;;;2073750;28;20258;-77
2023/07/24 00:34:58;;;;;;;;;;;;;;;;;;2072625;28;19909;-78
2023/07/24 00:36:18;;;;;;;;;;;;;;;;;;2076314;28;20537;-78
2023/07/24 00:37:39;;;;;;;;;;;;;;;;;;2080295;28;19909;-77
2023/07/24 00:39:00;;;;;;;;;;;;;;;;;;2074537;28;19909;-77
2023/07/24 00:40:20;;;;;;;;;;;;;;;;;;2073394;28;21146;-78
2023/07/24 00:41:41;;;;;;;;;;;;;;;;;;2070696;28;19921;-77
2023/07/24 00:43:02;;;;;;;;;;;;;;;;;;2072191;28;19956;-77
2023/07/24 00:44:23;;;;;;;;;;;;;;;;;;2071016;28;19967;-78
2023/07/24 00:45:43;;;;;;;;;;;;;;;;;;2059939;28;20236;-77
2023/07/24 00:47:04;;;;;;;;;;;;;;;;;;2061099;28;19913;-78
2023/07/24 00:48:25;;;;;;;;;;;;;;;;;;2064282;28;19913;-78
2023/07/24 00:49:45;;;;;;;;;;;;;;;;;;2067314;28;19913;-77
2023/07/24 00:51:06;;;;;;;;;;;;;;;;;;2073779;28;21234;-77
2023/07/24 00:52:27;;;;;;;;;;;;;;;;;;2059973;28;19913;-78
2023/07/24 00:53:47;;;;;;;;;;;;;;;;;;2064177;28;19909;-77
2023/07/24 00:55:08;;;;;;;;;;;;;;;;;;2073184;28;19959;-77
2023/07/24 00:56:29;;;;;;;;;;;;;;;;;;2070083;28;19913;-77
2023/07/24 00:57:49;;;;;;;;;;;;;;;;;;2063028;28;19910;-78
2023/07/24 00:59:10;;;;;;;;;;;;;;;;;;2067429;28;20368;-77
2023/07/24 01:00:31;;;;;;;;;;;;;;;;;;2066395;28;19950;-77
2023/07/24 01:01:51;;;;;;;;;;;;;;;;;;2064220;28;19921;-77
2023/07/24 01:03:12;;;;;;;;;;;;;;;;;;2068641;28;19910;-78
2023/07/24 01:04:33;;;;;;;;;;;;;;;;;;2066409;28;20072;-77
2023/07/24 01:05:53;;;;;;;;;;;;;;;;;;2074242;28;19916;-77
2023/07/24 01:07:16;;;;;;;;;;;;;;;;;;2063834;28;19954;-78
2023/07/24 01:08:37;;;;;;;;;;;;;;;;;;2069966;28;19921;-78
2023/07/24 01:09:57;;;;;;;;;;;;;;;;;;2070986;28;19909;-77
2023/07/24 01:11:18;;;;;;;;;;;;;;;;;;2073145;28;20490;-77
2023/07/24 01:12:39;;;;;;;;;;;;;;;;;;2068613;28;19909;-77
2023/07/24 01:13:59;;;;;;;;;;;;;;;;;;2078729;28;19909;-78
2023/07/24 01:15:20;;;;;;;;;;;;;;;;;;2067119;28;19914;-77
2023/07/24 01:16:41;;;;;;;;;;;;;;;;;;2057820;28;19910;-78
2023/07/24 01:18:02;;;;;;;;;;;;;;;;;;2058752;28;20307;-78
2023/07/24 01:19:22;;;;;;;;;;;;;;;;;;2066283;28;19918;-78
2023/07/24 01:20:43;;;;;;;;;;;;;;;;;;2063185;28;20261;-78
2023/07/24 01:22:04;;;;;;;;;;;;;;;;;;2064004;28;19914;-78
2023/07/24 01:23:25;;;;;;;;;;;;;;;;;;2062501;28;20352;-77
2023/07/24 01:24:45;;;;;;;;;;;;;;;;;;2070630;28;19912;-78
2023/07/24 01:26:06;;;;;;;;;;;;;;;;;;2063692;28;20388;-77
2023/07/24 01:27:27;;;;;;;;;;;;;;;;;;2070319;28;19917;-78
2023/07/24 01:28:48;;;;;;;;;;;;;;;;;;2065564;28;20428;-78
2023/07/24 01:30:08;;;;;;;;;;;;;;;;;;2064701;28;19913;-78
2023/07/24 01:31:29;;;;;;;;;;;;;;;;;;2070260;28;19918;-78
2023/07/24 01:32:50;;;;;;;;;;;;;;;;;;2073492;28;19913;-77
2023/07/24 01:34:10;;;;;;;;;;;;;;;;;;2058621;28;19906;-78
2023/07/24 01:35:31;;;;;;;;;;;;;;;;;;2062463;28;20336;-78
2023/07/24 01:36:52;;;;;;;;;;;;;;;;;;2070721;28;19929;-78
2023/07/24 01:38:12;;;;;;;;;;;;;;;;;;2064947;28;19917;-78
2023/07/24 01:39:33;;;;;;;;;;;;;;;;;;2064276;28;20257;-77
2023/07/24 01:40:54;;;;;;;;;;;;;;;;;;2064522;28;20376;-78
2023/07/24 01:42:15;;;;;;;;;;;;;;;;;;2068510;28;19914;-77
2023/07/24 01:43:35;;;;;;;;;;;;;;;;;;2072909;28;19905;-77
2023/07/24 01:44:56;;;;;;;;;;;;;;;;;;2072943;28;19909;-77
2023/07/24 01:46:17;;;;;;;;;;;;;;;;;;2065187;28;20232;-77
2023/07/24 01:47:37;;;;;;;;;;;;;;;;;;2075710;28;19912;-78
2023/07/24 01:48:58;;;;;;;;;;;;;;;;;;2066377;28;19905;-77
2023/07/24 01:50:19;;;;;;;;;;;;;;;;;;2078923;28;19916;-78
2023/07/24 01:51:39;;;;;;;;;;;;;;;;;;2075527;28;19916;-77
2023/07/24 01:53:00;;;;;;;;;;;;;;;;;;2065624;28;19906;-77
2023/07/24 01:54:21;;;;;;;;;;;;;;;;;;2064797;28;19905;-77
2023/07/24 01:55:41;;;;;;;;;;;;;;;;;;2066266;28;19910;-77
2023/07/24 01:57:02;;;;;;;;;;;;;;;;;;2075623;28;19912;-76
2023/07/24 01:58:23;;;;;;;;;;;;;;;;;;2064222;28;19905;-77
2023/07/24 01:59:44;;;;;;;;;;;;;;;;;;2070332;28;20345;-77
2023/07/24 02:01:05;;;;;;;;;;;;;;;;;;2073619;28;20379;-77
2023/07/24 02:02:26;;;;;;;;;;;;;;;;;;2073639;28;19913;-77
2023/07/24 02:03:46;;;;;;;;;;;;;;;;;;2065094;28;19906;-77
2023/07/24 02:05:07;;;;;;;;;;;;;;;;;;2064595;28;20336;-77
2023/07/24 02:06:28;;;;;;;;;;;;;;;;;;2064776;28;19913;-76
2023/07/24 02:07:49;;;;;;;;;;;;;;;;;;2066059;28;19910;-77
2023/07/24 02:09:09;;;;;;;;;;;;;;;;;;2069103;28;20245;-77
2023/07/24 02:10:30;;;;;;;;;;;;;;;;;;2074198;28;20432;-78
2023/07/24 02:11:51;;;;;;;;;;;;;;;;;;2073934;28;20240;-77
2023/07/24 02:13:11;;;;;;;;;;;;;;;;;;2074058;28;19917;-78
2023/07/24 02:14:32;;;;;;;;;;;;;;;;;;2073447;28;19912;-78
2023/07/24 02:15:53;;;;;;;;;;;;;;;;;;2067693;28;19917;-77
2023/07/24 02:17:14;;;;;;;;;;;;;;;;;;2071258;28;19909;-78
2023/07/24 02:18:35;;;;;;;;;;;;;;;;;;2067968;28;20127;-78
2023/07/24 02:19:55;;;;;;;;;;;;;;;;;;2069858;28;19920;-77
2023/07/24 02:21:16;;;;;;;;;;;;;;;;;;2054529;28;20384;-78
2023/07/24 02:22:37;;;;;;;;;;;;;;;;;;2067814;28;19924;-77
2023/07/24 02:23:58;;;;;;;;;;;;;;;;;;2073373;28;19913;-78
2023/07/24 02:25:18;;;;;;;;;;;;;;;;;;2072225;28;19906;-78
2023/07/24 02:26:39;;;;;;;;;;;;;;;;;;2061124;28;19913;-77
2023/07/24 02:28:00;;;;;;;;;;;;;;;;;;2069288;28;19913;-78
2023/07/24 02:29:22;;;;;;;;;;;;;;;;;;2059079;28;20353;-77
2023/07/24 02:30:43;;;;;;;;;;;;;;;;;;2049775;28;20004;-77
2023/07/24 02:32:03;;;;;;;;;;;;;;;;;;2068292;28;19921;-77
2023/07/24 02:33:24;;;;;;;;;;;;;;;;;;2063706;28;19910;-78
2023/07/24 02:34:45;;;;;;;;;;;;;;;;;;2061698;28;19920;-77
2023/07/24 02:36:05;;;;;;;;;;;;;;;;;;2055522;28;19914;-77
2023/07/24 02:37:26;;;;;;;;;;;;;;;;;;2059564;28;19976;-78
2023/07/24 02:38:47;;;;;;;;;;;;;;;;;;2063673;28;20466;-77
2023/07/24 02:40:07;;;;;;;;;;;;;;;;;;2058321;28;20415;-78
2023/07/24 02:41:28;;;;;;;;;;;;;;;;;;2063154;28;19977;-77
2023/07/24 02:42:49;;;;;;;;;;;;;;;;;;2059163;28;20336;-78
2023/07/24 02:44:10;;;;;;;;;;;;;;;;;;2062082;28;19913;-78
2023/07/24 02:45:30;;;;;;;;;;;;;;;;;;2060833;28;20372;-77
2023/07/24 02:46:51;;;;;;;;;;;;;;;;;;2063017;28;20305;-77
2023/07/24 02:48:12;;;;;;;;;;;;;;;;;;2065125;28;19917;-77
2023/07/24 02:49:32;;;;;;;;;;;;;;;;;;2059362;28;19933;-78
2023/07/24 02:50:53;;;;;;;;;;;;;;;;;;2061973;28;19922;-78
2023/07/24 02:52:14;;;;;;;;;;;;;;;;;;2067803;28;19993;-77
2023/07/24 02:53:34;;;;;;;;;;;;;;;;;;2064994;28;19916;-78
2023/07/24 02:54:55;;;;;;;;;;;;;;;;;;2067335;28;19909;-78
2023/07/24 02:56:16;;;;;;;;;;;;;;;;;;2065649;28;20391;-79
2023/07/24 02:57:36;;;;;;;;;;;;;;;;;;2062420;28;20008;-78
2023/07/24 02:58:57;;;;;;;;;;;;;;;;;;2057873;28;19910;-76
2023/07/24 03:00:18;;;;;;;;;;;;;;;;;;2059462;28;19917;-76
2023/07/24 03:01:39;;;;;;;;;;;;;;;;;;2067350;28;21107;-76
2023/07/24 03:02:59;;;;;;;;;;;;;;;;;;2064998;28;19922;-76
2023/07/24 03:04:20;;;;;;;;;;;;;;;;;;2065772;28;19909;-76
2023/07/24 03:05:41;;;;;;;;;;;;;;;;;;2070727;28;19957;-76
2023/07/24 03:07:01;;;;;;;;;;;;;;;;;;2070264;28;20200;-76
2023/07/24 03:08:22;;;;;;;;;;;;;;;;;;2069444;28;20292;-77
2023/07/24 03:09:43;;;;;;;;;;;;;;;;;;2056046;28;19913;-77
2023/07/24 03:11:03;;;;;;;;;;;;;;;;;;2068228;28;19909;-76
2023/07/24 03:12:24;;;;;;;;;;;;;;;;;;2062514;28;20452;-77
2023/07/24 03:13:45;;;;;;;;;;;;;;;;;;2045793;29;19938;-77
2023/07/24 03:15:05;;;;;;;;;;;;;;;;;;2066295;28;20288;-77
2023/07/24 03:16:26;;;;;;;;;;;;;;;;;;2072429;28;19925;-76
2023/07/24 03:17:47;;;;;;;;;;;;;;;;;;2072337;28;20387;-76
2023/07/24 03:19:07;;;;;;;;;;;;;;;;;;2064729;28;19906;-76
2023/07/24 03:20:28;;;;;;;;;;;;;;;;;;2064539;28;19929;-76
2023/07/24 03:21:49;;;;;;;;;;;;;;;;;;2066443;28;19933;-76
2023/07/24 03:23:09;;;;;;;;;;;;;;;;;;2063470;28;19918;-76
2023/07/24 03:24:30;;;;;;;;;;;;;;;;;;2063162;28;20302;-77
2023/07/24 03:25:51;;;;;;;;;;;;;;;;;;2070985;28;19920;-77
2023/07/24 03:27:12;;;;;;;;;;;;;;;;;;2070892;28;19910;-77
2023/07/24 03:28:33;;;;;;;;;;;;;;;;;;2066649;28;19906;-77
2023/07/24 03:29:53;;;;;;;;;;;;;;;;;;2058329;28;19906;-78
2023/07/24 03:31:14;;;;;;;;;;;;;;;;;;2056926;28;19964;-78
2023/07/24 03:32:35;;;;;;;;;;;;;;;;;;2065810;28;19948;-77
2023/07/24 03:33:55;;;;;;;;;;;;;;;;;;2058731;28;20396;-77
2023/07/24 03:35:16;;;;;;;;;;;;;;;;;;2063229;28;19906;-77
2023/07/24 03:36:41;;;;;;;;;;;;;;;;;;2058377;28;20221;-76
2023/07/24 03:38:01;;;;;;;;;;;;;;;;;;2058316;28;19906;-77
2023/07/24 03:39:22;;;;;;;;;;;;;;;;;;2057689;28;19917;-75
2023/07/24 03:40:43;;;;;;;;;;;;;;;;;;2055399;28;19913;-75
2023/07/24 03:42:03;;;;;;;;;;;;;;;;;;2057200;28;20328;-75
2023/07/24 03:43:24;;;;;;;;;;;;;;;;;;2063848;28;19985;-77
2023/07/24 03:44:45;;;;;;;;;;;;;;;;;;2066023;28;19918;-76
2023/07/24 03:46:06;;;;;;;;;;;;;;;;;;2065364;28;19913;-76
2023/07/24 03:47:26;;;;;;;;;;;;;;;;;;2070879;28;19906;-76
2023/07/24 03:48:49;;;;;;;;;;;;;;;;;;2063267;28;19909;-75
2023/07/24 03:50:10;;;;;;;;;;;;;;;;;;2066656;28;19906;-75
2023/07/24 03:51:32;;;;;;;;;;;;;;;;;;2069200;28;19910;-76
2023/07/24 03:52:52;;;;;;;;;;;;;;;;;;2065614;28;19924;-75
2023/07/24 03:54:13;;;;;;;;;;;;;;;;;;2065459;28;19917;-75
2023/07/24 03:55:34;;;;;;;;;;;;;;;;;;2066441;28;19913;-76
2023/07/24 03:56:54;;;;;;;;;;;;;;;;;;2065125;28;19992;-75
2023/07/24 03:58:15;;;;;;;;;;;;;;;;;;2067425;28;20365;-75
2023/07/24 03:59:36;;;;;;;;;;;;;;;;;;2066155;28;19905;-75
2023/07/24 04:00:56;;;;;;;;;;;;;;;;;;2065526;28;19905;-75
2023/07/24 04:02:17;;;;;;;;;;;;;;;;;;2057868;28;19933;-75
2023/07/24 04:03:38;;;;;;;;;;;;;;;;;;2067534;28;20288;-75
2023/07/24 04:04:58;;;;;;;;;;;;;;;;;;2073160;28;19905;-76
2023/07/24 04:06:19;;;;;;;;;;;;;;;;;;2068520;28;19912;-75
2023/07/24 04:07:40;;;;;;;;;;;;;;;;;;2065097;28;19960;-76
2023/07/24 04:09:00;;;;;;;;;;;;;;;;;;2065616;28;19906;-76
2023/07/24 04:10:21;;;;;;;;;;;;;;;;;;2063668;28;19925;-76
2023/07/24 04:11:42;;;;;;;;;;;;;;;;;;2057841;28;19914;-75
2023/07/24 04:13:03;;;;;;;;;;;;;;;;;;2069516;28;19921;-75
2023/07/24 04:14:23;;;;;;;;;;;;;;;;;;2066468;28;19910;-75
2023/07/24 04:15:44;;;;;;;;;;;;;;;;;;2065315;28;20284;-76
2023/07/24 04:17:05;;;;;;;;;;;;;;;;;;2066886;28;19918;-75
2023/07/24 04:18:26;;;;;;;;;;;;;;;;;;2067768;28;19913;-76
2023/07/24 04:19:46;;;;;;;;;;;;;;;;;;2057293;28;19945;-75
2023/07/24 04:21:07;;;;;;;;;;;;;;;;;;2058165;28;19906;-75
2023/07/24 04:22:28;;;;;;;;;;;;;;;;;;2070358;28;19914;-76
2023/07/24 04:23:48;;;;;;;;;;;;;;;;;;2070158;28;19910;-76
2023/07/24 04:25:09;;;;;;;;;;;;;;;;;;2071630;28;19916;-76
2023/07/24 04:26:30;;;;;;;;;;;;;;;;;;2066526;28;19971;-76
2023/07/24 04:27:50;;;;;;;;;;;;;;;;;;2063016;28;19926;-76
2023/07/24 04:29:11;;;;;;;;;;;;;;;;;;2069805;28;19959;-76
2023/07/24 04:30:32;;;;;;;;;;;;;;;;;;2065224;28;19918;-76
2023/07/24 04:31:53;;;;;;;;;;;;;;;;;;2070147;28;20339;-76
2023/07/24 04:33:13;;;;;;;;;;;;;;;;;;2069174;28;19960;-75
2023/07/24 04:34:34;;;;;;;;;;;;;;;;;;2071211;28;19956;-76
2023/07/24 04:35:55;;;;;;;;;;;;;;;;;;2066865;28;19925;-76
2023/07/24 04:37:16;;;;;;;;;;;;;;;;;;2064840;28;19925;-75
2023/07/24 04:38:36;;;;;;;;;;;;;;;;;;2065156;28;19916;-76
2023/07/24 04:39:57;;;;;;;;;;;;;;;;;;2067183;28;21329;-75
2023/07/24 04:41:18;;;;;;;;;;;;;;;;;;2066557;28;20417;-75
2023/07/24 04:42:38;;;;;;;;;;;;;;;;;;2063382;28;20007;-75
2023/07/24 04:43:59;;;;;;;;;;;;;;;;;;2067937;28;19913;-76
2023/07/24 04:45:20;;;;;;;;;;;;;;;;;;2070428;28;19917;-77
2023/07/24 04:46:41;;;;;;;;;;;;;;;;;;2066353;28;19936;-76
2023/07/24 04:48:01;;;;;;;;;;;;;;;;;;2067612;28;19909;-76
2023/07/24 04:49:23;;;;;;;;;;;;;;;;;;2064257;28;20422;-76
2023/07/24 04:50:43;;;;;;;;;;;;;;;;;;2070606;28;20264;-76
2023/07/24 04:52:04;;;;;;;;;;;;;;;;;;2066337;28;19921;-77
2023/07/24 04:53:25;;;;;;;;;;;;;;;;;;2062826;28;20265;-76
2023/07/24 04:54:46;;;;;;;;;;;;;;;;;;2067622;28;20284;-76
2023/07/24 04:56:07;;;;;;;;;;;;;;;;;;2067877;28;20284;-76
2023/07/24 04:57:27;;;;;;;;;;;;;;;;;;2065828;28;19937;-76
2023/07/24 04:58:48;;;;;;;;;;;;;;;;;;2068519;28;20371;-76
2023/07/24 05:00:09;;;;;;;;;;;;;;;;;;2066870;28;19921;-75
2023/07/24 05:01:29;;;;;;;;;;;;;;;;;;2065470;28;20365;-76
2023/07/24 05:02:50;;;;;;;;;;;;;;;;;;2062996;28;19968;-76
2023/07/24 05:04:11;;;;;;;;;;;;;;;;;;2066731;28;19972;-76
2023/07/24 05:05:31;;;;;;;;;;;;;;;;;;2066965;28;19963;-76
2023/07/24 05:06:52;;;;;;;;;;;;;;;;;;2068476;28;20000;-76
2023/07/24 05:08:13;;;;;;;;;;;;;;;;;;2069377;28;19913;-76
2023/07/24 05:09:34;;;;;;;;;;;;;;;;;;2069819;28;19956;-75
2023/07/24 05:10:55;;;;;;;;;;;;;;;;;;2064423;28;19932;-76
2023/07/24 05:12:15;;;;;;;;;;;;;;;;;;2065476;28;20335;-75
2023/07/24 05:13:36;;;;;;;;;;;;;;;;;;2057888;28;19972;-75
2023/07/24 05:14:57;;;;;;;;;;;;;;;;;;2056956;28;19989;-75
2023/07/24 05:16:17;;;;;;;;;;;;;;;;;;2055538;28;19925;-75
2023/07/24 05:17:38;;;;;;;;;;;;;;;;;;2056095;28;19910;-76
2023/07/24 05:18:59;;;;;;;;;;;;;;;;;;2043863;28;19922;-76
2023/07/24 05:20:19;;;;;;;;;;;;;;;;;;2046962;28;19910;-76
2023/07/24 05:21:40;;;;;;;;;;;;;;;;;;2042978;28;20223;-76
2023/07/24 05:23:01;;;;;;;;;;;;;;;;;;2045403;28;19918;-76
2023/07/24 05:24:22;;;;;;;;;;;;;;;;;;2052922;28;19914;-76
2023/07/24 05:25:42;;;;;;;;;;;;;;;;;;2057137;28;19913;-76
2023/07/24 05:27:03;;;;;;;;;;;;;;;;;;2049856;28;20949;-76
2023/07/24 05:28:25;;;;;;;;;;;;;;;;;;2056259;28;19906;-75
2023/07/24 05:29:46;;;;;;;;;;;;;;;;;;2057461;28;20381;-75
2023/07/24 05:31:08;;;;;;;;;;;;;;;;;;2058403;28;19917;-75
2023/07/24 05:32:28;;;;;;;;;;;;;;;;;;2049991;28;19926;-76
2023/07/24 05:33:49;;;;;;;;;;;;;;;;;;2055108;28;19914;-76
2023/07/24 05:35:09;;;;;;;;;;;;;;;;;;2048413;28;20363;-76
2023/07/24 05:36:30;;;;;;;;;;;;;;;;;;2063057;28;19954;-76
2023/07/24 05:37:51;;;;;;;;;;;;;;;;;;2056643;28;19949;-76
2023/07/24 05:39:12;;;;;;;;;;;;;;;;;;2048283;28;19910;-75
2023/07/24 05:40:32;;;;;;;;;;;;;;;;;;2050647;28;20374;-76
2023/07/24 05:41:53;;;;;;;;;;;;;;;;;;2050755;28;20093;-76
2023/07/24 05:43:14;;;;;;;;;;;;;;;;;;2049628;28;19921;-76
2023/07/24 05:44:37;;;;;;;;;;;;;;;;;;2047903;28;19906;-75
2023/07/24 05:45:57;;;;;;;;;;;;;;;;;;2054744;28;19957;-76
2023/07/24 05:47:18;;;;;;;;;;;;;;;;;;2060359;28;19906;-76
2023/07/24 05:48:39;;;;;;;;;;;;;;;;;;2058940;28;19926;-75
2023/07/24 05:49:59;;;;;;;;;;;;;;;;;;2045764;28;20314;-75
2023/07/24 05:51:20;;;;;;;;;;;;;;;;;;2050841;28;19921;-75
2023/07/24 05:52:41;;;;;;;;;;;;;;;;;;2055356;28;20389;-75
2023/07/24 05:54:02;;;;;;;;;;;;;;;;;;2053811;28;19918;-75
2023/07/24 05:55:22;;;;;;;;;;;;;;;;;;2050279;28;19914;-76
2023/07/24 05:56:43;;;;;;;;;;;;;;;;;;2045843;29;19914;-76
2023/07/24 05:58:04;;;;;;;;;;;;;;;;;;2048822;28;19910;-75
2023/07/24 05:59:24;;;;;;;;;;;;;;;;;;2053876;28;19906;-75
2023/07/24 06:00:45;;;;;;;;;;;;;;;;;;2049506;28;19914;-76
2023/07/24 06:02:07;;;;;;;;;;;;;;;;;;2041173;29;19911;-76
2023/07/24 06:03:27;;;;;;;;;;;;;;;;;;2046859;28;19926;-76
2023/07/24 06:04:48;;;;;;;;;;;;;;;;;;2041174;29;19918;-76
2023/07/24 06:06:09;;;;;;;;;;;;;;;;;;2052293;28;19906;-76
2023/07/24 06:07:29;;;;;;;;;;;;;;;;;;2045853;29;19914;-76
2023/07/24 06:08:50;;;;;;;;;;;;;;;;;;2043567;28;19922;-76
2023/07/24 06:10:11;;;;;;;;;;;;;;;;;;2056344;28;20289;-76
2023/07/24 06:11:32;;;;;;;;;;;;;;;;;;2047684;29;19922;-76
2023/07/24 06:12:52;;;;;;;;;;;;;;;;;;2048860;28;19957;-76
2023/07/24 06:14:13;;;;;;;;;;;;;;;;;;2052657;28;19985;-76
2023/07/24 06:15:34;;;;;;;;;;;;;;;;;;2049975;28;19914;-75
2023/07/24 06:16:55;;;;;;;;;;;;;;;;;;2066451;28;20391;-75
2023/07/24 06:18:15;;;;;;;;;;;;;;;;;;2067266;28;19960;-76
2023/07/24 06:19:36;;;;;;;;;;;;;;;;;;2070318;28;19917;-76
2023/07/24 06:20:57;;;;;;;;;;;;;;;;;;2052636;28;20537;-75
2023/07/24 06:22:17;;;;;;;;;;;;;;;;;;2061184;28;19925;-75
2023/07/24 06:23:38;;;;;;;;;;;;;;;;;;2058224;28;19917;-76
2023/07/24 06:24:59;;;;;;;;;;;;;;;;;;2062741;28;20276;-75
2023/07/24 06:26:19;;;;;;;;;;;;;;;;;;2065892;28;20462;-76
2023/07/24 06:27:40;;;;;;;;;;;;;;;;;;2065979;28;19914;-76
2023/07/24 06:29:01;;;;;;;;;;;;;;;;;;2057016;28;19909;-76
2023/07/24 06:30:21;;;;;;;;;;;;;;;;;;2060759;28;19910;-76
2023/07/24 06:31:42;;;;;;;;;;;;;;;;;;2065312;28;19917;-76
2023/07/24 06:33:03;;;;;;;;;;;;;;;;;;2068222;28;19913;-76
2023/07/24 06:34:23;;;;;;;;;;;;;;;;;;2064663;28;19917;-76
2023/07/24 06:35:44;;;;;;;;;;;;;;;;;;2069174;28;20023;-76
2023/07/24 06:37:05;;;;;;;;;;;;;;;;;;2061870;28;20288;-76
2023/07/24 06:38:25;;;;;;;;;;;;;;;;;;2066809;28;19906;-76
2023/07/24 06:39:46;;;;;;;;;;;;;;;;;;2060554;28;19954;-76
2023/07/24 06:41:07;;;;;;;;;;;;;;;;;;2069414;28;19920;-75
2023/07/24 06:42:28;;;;;;;;;;;;;;;;;;2065603;28;19917;-75
2023/07/24 06:43:48;;;;;;;;;;;;;;;;;;2066312;28;19917;-74
2023/07/24 06:45:09;;;;;;;;;;;;;;;;;;2059729;28;20361;-75
2023/07/24 06:46:30;;;;;;;;;;;;;;;;;;2067358;28;19966;-75
2023/07/24 06:47:51;;;;;;;;;;;;;;;;;;2064975;28;19987;-76
2023/07/24 06:49:11;;;;;;;;;;;;;;;;;;2068834;28;19909;-76
2023/07/24 06:50:32;;;;;;;;;;;;;;;;;;2057326;28;19914;-77
2023/07/24 06:51:53;;;;;;;;;;;;;;;;;;2062393;28;20289;-76
2023/07/24 06:53:13;;;;;;;;;;;;;;;;;;2055586;28;19910;-76
2023/07/24 06:54:34;;;;;;;;;;;;;;;;;;2060374;28;19924;-76
2023/07/24 06:55:55;;;;;;;;;;;;;;;;;;2061273;28;19913;-76
2023/07/24 06:57:15;;;;;;;;;;;;;;;;;;2071782;28;20257;-76
2023/07/24 06:58:36;;;;;;;;;;;;;;;;;;2066277;28;19985;-76
2023/07/24 06:59:57;;;;;;;;;;;;;;;;;;2058058;28;19906;-76
2023/07/24 07:01:18;;;;;;;;;;;;;;;;;;2064113;28;19906;-76
2023/07/24 07:02:38;;;;;;;;;;;;;;;;;;2057903;28;19906;-76
2023/07/24 07:03:59;;;;;;;;;;;;;;;;;;2055173;28;19910;-76
2023/07/24 07:05:20;;;;;;;;;;;;;;;;;;2062420;28;19913;-76
2023/07/24 07:06:40;;;;;;;;;;;;;;;;;;2057322;28;19910;-75
2023/07/24 07:08:01;;;;;;;;;;;;;;;;;;2065560;28;19910;-76
2023/07/24 07:09:22;;;;;;;;;;;;;;;;;;2057655;28;19932;-76
2023/07/24 07:10:42;;;;;;;;;;;;;;;;;;2064768;28;19910;-76
2023/07/24 07:12:03;;;;;;;;;;;;;;;;;;2063205;28;20372;-76
2023/07/24 07:13:24;;;;;;;;;;;;;;;;;;2066035;28;19964;-75
2023/07/24 07:14:45;;;;;;;;;;;;;;;;;;2058649;28;19918;-75
2023/07/24 07:16:05;;;;;;;;;;;;;;;;;;2061192;28;19918;-75
2023/07/24 07:17:26;;;;;;;;;;;;;;;;;;2058712;28;20384;-76
2023/07/24 07:18:47;;;;;;;;;;;;;;;;;;2063943;28;19956;-75
2023/07/24 07:20:07;;;;;;;;;;;;;;;;;;2066488;28;20365;-75
2023/07/24 07:21:28;;;;;;;;;;;;;;;;;;2059790;28;19905;-75
2023/07/24 07:22:49;;;;;;;;;;;;;;;;;;2065479;28;19906;-75
2023/07/24 07:24:10;;;;;;;;;;;;;;;;;;2064712;28;19948;-75
2023/07/24 07:25:31;;;;;;;;;;;;;;;;;;2065612;28;19906;-75
2023/07/24 07:26:51;;;;;;;;;;;;;;;;;;2065448;28;19917;-75
2023/07/24 07:28:12;;;;;;;;;;;;;;;;;;2065874;28;19906;-75
2023/07/24 07:29:33;;;;;;;;;;;;;;;;;;2067112;28;19909;-75
2023/07/24 07:30:53;;;;;;;;;;;;;;;;;;2065284;28;19906;-74
2023/07/24 07:32:14;;;;;;;;;;;;;;;;;;2065573;28;19909;-75
2023/07/24 07:33:35;;;;;;;;;;;;;;;;;;2062952;28;19910;-75
2023/07/24 07:34:56;;;;;;;;;;;;;;;;;;2061225;28;19918;-75
2023/07/24 07:36:17;;;;;;;;;;;;;;;;;;2052708;28;19961;-75
2023/07/24 07:37:38;;;;;;;;;;;;;;;;;;2069716;28;19916;-75
2023/07/24 07:38:59;;;;;;;;;;;;;;;;;;2058913;28;19914;-76
2023/07/24 07:40:19;;;;;;;;;;;;;;;;;;2058497;28;19921;-76
2023/07/24 07:41:40;;;;;;;;;;;;;;;;;;2061852;28;19956;-75
2023/07/24 07:43:01;;;;;;;;;;;;;;;;;;2063685;28;20392;-75
2023/07/24 07:44:21;;;;;;;;;;;;;;;;;;2063505;28;19922;-75
2023/07/24 07:45:42;;;;;;;;;;;;;;;;;;2058284;28;20360;-75
2023/07/24 07:47:03;;;;;;;;;;;;;;;;;;2060770;28;19984;-75
2023/07/24 07:48:23;;;;;;;;;;;;;;;;;;2065634;28;19914;-75
2023/07/24 07:49:44;;;;;;;;;;;;;;;;;;2063818;28;19916;-75
2023/07/24 07:51:05;;;;;;;;;;;;;;;;;;2065335;28;19918;-75
2023/07/24 07:52:25;;;;;;;;;;;;;;;;;;2066266;28;19910;-75
2023/07/24 07:53:46;;;;;;;;;;;;;;;;;;2061779;28;19905;-75
2023/07/24 07:55:07;;;;;;;;;;;;;;;;;;2069554;28;19979;-75
2023/07/24 07:56:28;;;;;;;;;;;;;;;;;;2068464;28;19932;-75
2023/07/24 07:57:49;;;;;;;;;;;;;;;;;;2065880;28;19913;-75
2023/07/24 07:59:09;;;;;;;;;;;;;;;;;;2058886;28;19909;-75
2023/07/24 08:00:30;;;;;;;;;;;;;;;;;;2058957;28;20288;-75
2023/07/24 08:01:51;;;;;;;;;;;;;;;;;;2069246;28;19913;-75
2023/07/24 08:03:11;;;;;;;;;;;;;;;;;;2069031;28;19909;-75
2023/07/24 08:04:32;;;;;;;;;;;;;;;;;;2065653;28;19979;-75
2023/07/24 08:05:53;;;;;;;;;;;;;;;;;;2066509;28;19936;-75
2023/07/24 08:07:13;;;;;;;;;;;;;;;;;;2064932;28;19917;-75
2023/07/24 08:08:34;;;;;;;;;;;;;;;;;;2055010;28;22049;-74
2023/07/24 08:09:56;;;;;;;;;;;;;;;;;;2062229;28;19917;-75
2023/07/24 08:11:16;;;;;;;;;;;;;;;;;;2066579;28;19909;-75
2023/07/24 08:12:37;;;;;;;;;;;;;;;;;;2060300;28;19999;-75
2023/07/24 08:13:58;;;;;;;;;;;;;;;;;;2060495;28;19921;-76
2023/07/24 08:15:18;;;;;;;;;;;;;;;;;;2062571;28;19913;-74
2023/07/24 08:16:39;;;;;;;;;;;;;;;;;;2055509;28;19922;-75
2023/07/24 08:18:00;;;;;;;;;;;;;;;;;;2054148;28;20324;-75
2023/07/24 08:19:21;;;;;;;;;;;;;;;;;;2059764;28;19909;-75
2023/07/24 08:20:41;;;;;;;;;;;;;;;;;;2054935;28;19906;-75
2023/07/24 08:22:02;;;;;;;;;;;;;;;;;;2055064;28;19910;-76
2023/07/24 08:23:23;;;;;;;;;;;;;;;;;;2050861;28;19914;-76
2023/07/24 08:24:44;;;;;;;;;;;;;;;;;;2056258;28;19940;-75
2023/07/24 08:26:05;;;;;;;;;;;;;;;;;;2046447;28;19911;-76
2023/07/24 08:27:26;;;;;;;;;;;;;;;;;;2056003;28;19918;-75
2023/07/24 08:28:47;;;;;;;;;;;;;;;;;;2063195;28;19914;-76
2023/07/24 08:30:08;;;;;;;;;;;;;;;;;;2050806;28;19907;-76
2023/07/24 08:31:29;;;;;;;;;;;;;;;;;;2054405;28;19953;-75
2023/07/24 08:32:53;;;;;;;;;;;;;;;;;;2057044;28;19910;-75
2023/07/24 08:34:13;;;;;;;;;;;;;;;;;;2048575;28;19915;-75
2023/07/24 08:35:34;;;;;;;;;;;;;;;;;;2062156;28;19940;-75
2023/07/24 08:36:55;;;;;;;;;;;;;;;;;;2066316;28;19906;-75
2023/07/24 08:38:16;;;;;;;;;;;;;;;;;;2065291;28;19906;-75
2023/07/24 08:39:36;;;;;;;;;;;;;;;;;;2063117;28;19914;-75
2023/07/24 08:40:57;;;;;;;;;;;;;;;;;;2057629;28;19913;-76
2023/07/24 08:42:20;;;;;;;;;;;;;;;;;;2053284;28;20437;-76
2023/07/24 08:43:40;;;;;;;;;;;;;;;;;;2050387;28;19935;-75
2023/07/24 08:45:01;;;;;;;;;;;;;;;;;;2061042;28;19920;-77
2023/07/24 08:46:22;;;;;;;;;;;;;;;;;;2065781;28;19921;-76
2023/07/24 08:47:43;;;;;;;;;;;;;;;;;;2056648;28;20284;-76
2023/07/24 08:49:04;;;;;;;;;;;;;;;;;;2058481;28;19906;-76
2023/07/24 08:50:25;;;;;;;;;;;;;;;;;;2050280;28;19990;-77
2023/07/24 08:51:46;;;;;;;;;;;;;;;;;;2050017;28;19914;-76
2023/07/24 08:53:07;;;;;;;;;;;;;;;;;;2049753;28;19906;-76
2023/07/24 08:54:27;;;;;;;;;;;;;;;;;;2049801;28;19914;-77
2023/07/24 08:55:51;;;;;;;;;;;;;;;;;;2050376;28;19906;-76
2023/07/24 08:57:11;;;;;;;;;;;;;;;;;;2063081;28;19913;-77
2023/07/24 08:58:32;;;;;;;;;;;;;;;;;;2052447;28;19906;-77
2023/07/24 08:59:53;;;;;;;;;;;;;;;;;;2049211;28;19914;-77
2023/07/24 09:01:13;;;;;;;;;;;;;;;;;;2052291;28;19918;-76
2023/07/24 09:02:34;;;;;;;;;;;;;;;;;;2057548;28;19906;-79
2023/07/24 09:03:55;;;;;;;;;;;;;;;;;;2048467;28;20426;-78
2023/07/24 09:05:16;;;;;;;;;;;;;;;;;;2047832;28;19906;-78
2023/07/24 09:06:37;;;;;;;;;;;;;;;;;;2053680;28;20366;-77
2023/07/24 09:07:58;;;;;;;;;;;;;;;;;;2048111;28;19907;-78
2023/07/24 09:09:19;;;;;;;;;;;;;;;;;;2048439;28;19910;-77
2023/07/24 09:10:39;;;;;;;;;;;;;;;;;;2059722;28;19912;-79
2023/07/24 09:12:00;;;;;;;;;;;;;;;;;;2063501;28;20349;-79